createdAt,value
2023-12-13T00:01:53.028Z,8.53
2023-12-13T00:04:21.095Z,8.90
2023-12-13T00:06:47.524Z,8.73
2023-12-13T00:09:13.987Z,8.13
2023-12-13T00:11:40.379Z,7.83
2023-12-13T00:14:07.185Z,7.50
2023-12-13T00:16:33.602Z,7.90
2023-12-13T00:19:00.147Z,8.40
2023-12-13T00:21:26.758Z,7.43
2023-12-13T00:23:53.150Z,8.07
2023-12-13T00:26:19.919Z,7.73
2023-12-13T00:28:46.489Z,7.80
2023-12-13T00:31:13.176Z,8.37
2023-12-13T00:33:39.799Z,7.23
2023-12-13T00:36:06.863Z,8.43
2023-12-13T00:38:33.243Z,9.77
2023-12-13T00:41:00.041Z,8.50
2023-12-13T00:43:27.355Z,9.50
2023-12-13T00:45:53.717Z,8.73
2023-12-13T00:48:20.130Z,7.73
2023-12-13T00:50:46.497Z,7.17
2023-12-13T00:53:13.601Z,8.37
2023-12-13T00:55:40.145Z,7.23
2023-12-13T00:58:06.592Z,7.30
2023-12-13T01:00:32.989Z,8.20
2023-12-13T01:02:59.451Z,9.00
2023-12-13T01:05:25.986Z,8.80
2023-12-13T01:07:52.533Z,8.50
2023-12-13T01:10:21.265Z,8.30
2023-12-13T01:12:47.748Z,7.70
2023-12-13T01:15:14.155Z,9.40
2023-12-13T01:17:40.493Z,9.73
2023-12-13T01:20:12.953Z,9.17
2023-12-13T01:22:39.491Z,8.83
2023-12-13T01:25:07.032Z,8.77
2023-12-13T01:27:33.537Z,9.63
2023-12-13T01:30:00.018Z,9.07
2023-12-13T01:32:26.497Z,9.43
2023-12-13T01:34:53.200Z,9.20
2023-12-13T01:37:19.650Z,9.13
2023-12-13T01:39:46.049Z,9.73
2023-12-13T01:42:12.402Z,9.20
2023-12-13T01:44:39.731Z,8.90
2023-12-13T01:47:06.213Z,9.37
2023-12-13T01:49:32.694Z,9.60
2023-12-13T01:51:59.492Z,10.03
2023-12-13T01:54:25.866Z,9.40
2023-12-13T01:56:53.321Z,9.03
2023-12-13T01:59:19.863Z,10.37
2023-12-13T02:01:46.323Z,10.77
2023-12-13T02:04:14.693Z,10.70
2023-12-13T02:06:42.061Z,9.67
2023-12-13T02:09:09.870Z,9.80
2023-12-13T02:11:36.293Z,11.00
2023-12-13T02:14:02.829Z,10.60
2023-12-13T02:16:29.210Z,11.23
2023-12-13T02:18:55.649Z,10.90
2023-12-13T02:21:22.079Z,12.70
2023-12-13T02:23:48.917Z,12.23
2023-12-13T02:26:15.341Z,11.90
2023-12-13T02:28:41.830Z,11.83
2023-12-13T02:31:09.861Z,12.03
2023-12-13T02:33:36.505Z,11.97
2023-12-13T02:36:05.359Z,13.17
2023-12-13T02:38:31.857Z,13.20
2023-12-13T02:40:58.352Z,11.93
2023-12-13T02:43:24.874Z,11.87
2023-12-13T02:45:51.634Z,11.67
2023-12-13T02:48:18.159Z,11.67
2023-12-13T02:50:44.616Z,10.80
2023-12-13T02:53:11.057Z,14.03
2023-12-13T02:55:37.447Z,12.13
2023-12-13T02:58:04.967Z,11.67
2023-12-13T03:00:31.397Z,11.40
2023-12-13T03:02:58.397Z,11.03
2023-12-13T03:05:24.996Z,11.87
2023-12-13T03:07:51.515Z,12.03
2023-12-13T03:10:18.062Z,12.30
2023-12-13T03:12:44.426Z,11.60
2023-12-13T03:15:10.921Z,11.07
2023-12-13T03:17:37.693Z,11.03
2023-12-13T03:20:04.745Z,10.70
2023-12-13T03:22:31.213Z,11.57
2023-12-13T03:24:58.094Z,10.57
2023-12-13T03:27:24.476Z,11.90
2023-12-13T03:29:50.823Z,11.87
2023-12-13T03:32:17.166Z,11.17
2023-12-13T03:34:44.127Z,11.37
2023-12-13T03:37:10.559Z,11.90
2023-12-13T03:39:36.966Z,11.27
2023-12-13T03:42:03.570Z,11.33
2023-12-13T03:44:30.006Z,11.20
2023-12-13T03:46:57.617Z,11.77
2023-12-13T03:49:24.329Z,11.80
2023-12-13T03:51:50.806Z,10.90
2023-12-13T03:54:17.164Z,11.10
2023-12-13T03:56:43.618Z,11.10
2023-12-13T03:59:10.075Z,11.97
2023-12-13T04:01:36.899Z,11.53
2023-12-13T04:04:03.936Z,11.63
2023-12-13T04:06:30.459Z,11.40
2023-12-13T04:08:57.060Z,12.17
2023-12-13T04:11:23.416Z,11.50
2023-12-13T04:13:50.258Z,11.30
2023-12-13T04:16:16.817Z,11.90
2023-12-13T04:18:43.374Z,11.33
2023-12-13T04:21:09.764Z,12.37
2023-12-13T04:23:36.200Z,11.87
2023-12-13T04:26:02.621Z,12.00
2023-12-13T04:28:29.012Z,12.57
2023-12-13T04:30:55.410Z,12.23
2023-12-13T04:33:21.929Z,12.60
2023-12-13T04:35:48.498Z,12.43
2023-12-13T04:38:14.831Z,11.67
2023-12-13T04:40:41.252Z,11.70
2023-12-13T04:43:07.625Z,11.97
2023-12-13T04:45:34.005Z,11.30
2023-12-13T04:48:00.478Z,12.67
2023-12-13T04:50:26.892Z,12.73
2023-12-13T04:52:53.320Z,12.97
2023-12-13T04:55:19.816Z,12.60
2023-12-13T04:57:46.340Z,12.83
2023-12-13T05:00:12.921Z,12.57
2023-12-13T05:02:40.543Z,13.40
2023-12-13T05:05:07.222Z,12.17
2023-12-13T05:07:35.061Z,12.77
2023-12-13T05:10:01.895Z,13.83
2023-12-13T05:12:28.257Z,12.83
2023-12-13T05:14:54.616Z,13.40
2023-12-13T05:17:21.039Z,13.10
2023-12-13T05:19:47.481Z,12.70
2023-12-13T05:22:13.911Z,11.67
2023-12-13T05:24:40.266Z,11.37
2023-12-13T05:27:06.624Z,12.80
2023-12-13T05:29:33.788Z,10.97
2023-12-13T05:32:00.914Z,13.20
2023-12-13T05:34:27.375Z,12.50
2023-12-13T05:36:53.739Z,11.97
2023-12-13T05:39:20.091Z,9.93
2023-12-13T05:41:46.426Z,11.10
2023-12-13T05:44:12.789Z,11.60
2023-12-13T05:46:39.170Z,11.13
2023-12-13T05:49:08.029Z,10.70
2023-12-13T05:51:36.062Z,11.20
2023-12-13T05:54:02.466Z,11.47
2023-12-13T05:56:28.915Z,11.83
2023-12-13T05:58:55.902Z,11.03
2023-12-13T06:01:23.345Z,10.70
2023-12-13T06:03:49.982Z,11.70
2023-12-13T06:06:16.589Z,11.33
2023-12-13T06:08:43.073Z,11.20
2023-12-13T06:11:09.429Z,10.50
2023-12-13T06:13:36.223Z,10.43
2023-12-13T06:16:02.875Z,10.93
2023-12-13T06:18:29.329Z,10.87
2023-12-13T06:20:55.801Z,12.27
2023-12-13T06:23:22.228Z,11.43
2023-12-13T06:25:49.241Z,10.90
2023-12-13T06:28:15.666Z,11.97
2023-12-13T06:30:42.158Z,11.67
2023-12-13T06:33:08.587Z,12.00
2023-12-13T06:35:35.017Z,11.47
2023-12-13T06:38:01.441Z,12.70
2023-12-13T06:40:27.902Z,10.57
2023-12-13T06:42:54.315Z,11.73
2023-12-13T06:45:21.911Z,10.57
2023-12-13T06:47:49.825Z,10.67
2023-12-13T06:50:16.392Z,10.63
2023-12-13T06:52:42.797Z,10.43
2023-12-13T06:55:10.586Z,10.37
2023-12-13T06:57:36.950Z,9.67
2023-12-13T07:00:04.659Z,9.87
2023-12-13T07:02:32.061Z,9.40
2023-12-13T07:04:58.486Z,9.97
2023-12-13T07:07:24.929Z,9.53
2023-12-13T07:09:51.365Z,9.90
2023-12-13T07:12:17.746Z,9.13
2023-12-13T07:14:44.108Z,10.13
2023-12-13T07:17:10.718Z,9.47
2023-12-13T07:19:37.196Z,8.30
2023-12-13T07:22:04.116Z,9.77
2023-12-13T07:24:30.579Z,8.20
2023-12-13T07:26:56.962Z,8.70
2023-12-13T07:29:23.383Z,8.30
2023-12-13T07:31:49.825Z,8.67
2023-12-13T07:34:16.380Z,7.90
2023-12-13T07:36:46.979Z,8.40
2023-12-13T07:39:13.419Z,7.20
2023-12-13T07:41:39.759Z,8.10
2023-12-13T07:44:06.337Z,8.10
2023-12-13T07:46:32.777Z,8.07
2023-12-13T07:49:04.627Z,8.87
2023-12-13T07:51:32.322Z,8.80
2023-12-13T07:54:00.567Z,9.60
2023-12-13T07:56:28.363Z,9.13
2023-12-13T07:58:59.518Z,8.53
2023-12-13T08:01:27.541Z,8.53
2023-12-13T08:03:54.015Z,9.07
2023-12-13T08:06:21.979Z,9.43
2023-12-13T08:08:48.916Z,8.83
2023-12-13T08:11:16.856Z,9.10
2023-12-13T08:13:43.562Z,9.93
2023-12-13T08:16:11.065Z,9.20
2023-12-13T08:18:37.951Z,10.50
2023-12-13T08:21:07.235Z,9.47
2023-12-13T08:23:33.977Z,12.67
2023-12-13T08:26:00.423Z,9.57
2023-12-13T08:28:26.875Z,10.03
2023-12-13T08:30:53.291Z,10.00
2023-12-13T08:33:19.754Z,10.10
2023-12-13T08:35:47.594Z,9.37
2023-12-13T08:38:13.952Z,10.60
2023-12-13T08:40:40.400Z,11.33
2023-12-13T08:43:06.812Z,11.00
2023-12-13T08:45:33.169Z,9.80
2023-12-13T08:47:59.635Z,11.27
2023-12-13T08:50:26.017Z,12.10
2023-12-13T08:52:52.758Z,14.13
2023-12-13T08:55:19.736Z,13.77
2023-12-13T08:57:46.166Z,12.77
2023-12-13T09:00:13.266Z,11.60
2023-12-13T09:02:39.769Z,10.90
2023-12-13T09:05:06.444Z,10.80
2023-12-13T09:07:33.691Z,10.40
2023-12-13T09:10:00.753Z,10.40
2023-12-13T09:12:27.136Z,12.43
2023-12-13T09:14:53.553Z,13.17
2023-12-13T09:17:19.922Z,11.17
2023-12-13T09:19:46.434Z,9.90
2023-12-13T09:22:12.915Z,11.50
2023-12-13T09:24:39.291Z,10.97
2023-12-13T09:27:05.653Z,11.50
2023-12-13T09:29:32.243Z,11.53
2023-12-13T09:31:59.712Z,10.33
2023-12-13T09:34:26.180Z,9.60
2023-12-13T09:36:53.289Z,10.97
2023-12-13T09:39:19.623Z,10.67
2023-12-13T09:41:48.820Z,11.17
2023-12-13T09:44:15.901Z,9.63
2023-12-13T09:46:42.472Z,10.30
2023-12-13T09:49:20.092Z,12.33
2023-12-13T09:54:28.189Z,13.83
2023-12-13T09:56:54.588Z,13.17
2023-12-13T09:59:20.933Z,12.00
2023-12-13T10:01:47.303Z,13.40
2023-12-13T10:04:15.352Z,19.60
2023-12-13T10:06:42.772Z,10.87
2023-12-13T10:09:09.118Z,11.17
2023-12-13T10:11:35.494Z,10.03
2023-12-13T10:14:01.868Z,11.50
2023-12-13T10:16:30.169Z,10.77
2023-12-13T10:18:56.787Z,10.23
2023-12-13T10:21:23.682Z,10.57
2023-12-13T10:23:50.056Z,11.60
2023-12-13T10:26:16.434Z,11.40
2023-12-13T10:28:42.901Z,11.50
2023-12-13T10:31:09.840Z,10.23
2023-12-13T10:33:36.576Z,11.67
2023-12-13T10:36:04.775Z,10.17
2023-12-13T10:38:32.736Z,10.23
2023-12-13T10:41:00.952Z,11.20
2023-12-13T10:43:28.816Z,11.43
2023-12-13T10:46:02.312Z,11.37
2023-12-13T10:48:31.874Z,11.20
2023-12-13T10:50:59.092Z,10.70
2023-12-13T10:53:25.590Z,11.90
2023-12-13T10:55:53.091Z,10.33
2023-12-13T10:58:22.963Z,11.53
2023-12-13T11:00:49.609Z,11.03
2023-12-13T11:03:23.293Z,12.40
2023-12-13T11:09:49.565Z,11.30
2023-12-13T11:12:19.509Z,11.67
2023-12-13T11:14:49.706Z,11.60
2023-12-13T11:17:16.233Z,12.17
2023-12-13T11:19:43.141Z,11.03
2023-12-13T11:22:13.493Z,10.67
2023-12-13T11:24:41.760Z,11.80
2023-12-13T11:27:12.560Z,11.53
2023-12-13T11:29:38.997Z,11.57
2023-12-13T11:32:06.240Z,11.77
2023-12-13T11:34:35.821Z,12.90
2023-12-13T11:37:05.923Z,12.47
2023-12-13T11:39:33.906Z,13.10
2023-12-13T11:42:01.813Z,12.17
2023-12-13T11:44:31.876Z,11.33
2023-12-13T11:47:00.685Z,12.53
2023-12-13T11:53:14.847Z,12.70
2023-12-13T11:55:41.249Z,13.17
2023-12-13T11:58:09.187Z,14.17
2023-12-13T12:00:35.622Z,13.37
2023-12-13T12:03:02.272Z,13.30
2023-12-13T12:05:29.204Z,13.57
2023-12-13T12:07:56.325Z,13.33
2023-12-13T12:10:22.913Z,12.60
2023-12-13T12:12:52.427Z,14.57
2023-12-13T12:15:20.693Z,15.57
2023-12-13T12:17:47.768Z,14.27
2023-12-13T12:20:14.599Z,14.60
2023-12-13T12:22:41.092Z,16.73
2023-12-13T12:25:07.684Z,14.90
2023-12-13T12:27:36.918Z,14.13
2023-12-13T12:30:04.832Z,13.17
2023-12-13T12:32:31.220Z,14.63
2023-12-13T12:34:57.769Z,15.03
2023-12-13T12:37:24.145Z,15.20
2023-12-13T12:39:50.609Z,14.60
2023-12-13T12:42:17.193Z,13.10
2023-12-13T12:44:43.573Z,15.33
2023-12-13T12:47:10.726Z,14.63
2023-12-13T12:49:37.186Z,15.00
2023-12-13T12:52:04.007Z,14.17
2023-12-13T12:54:30.366Z,13.27
2023-12-13T12:56:56.782Z,14.47
2023-12-13T12:59:23.677Z,15.63
2023-12-13T13:01:50.327Z,14.80
2023-12-13T13:04:16.925Z,14.97
2023-12-13T13:06:43.727Z,15.13
2023-12-13T13:09:10.598Z,14.70
2023-12-13T13:11:37.047Z,15.00
2023-12-13T13:14:04.778Z,16.93
2023-12-13T13:16:36.765Z,14.73
2023-12-13T13:19:04.537Z,15.70
2023-12-13T13:21:30.915Z,15.70
2023-12-13T13:23:57.265Z,17.37
2023-12-13T13:26:23.706Z,17.87
2023-12-13T13:28:50.152Z,18.40
2023-12-13T13:31:17.080Z,19.00
2023-12-13T13:33:46.375Z,19.47
2023-12-13T13:36:13.755Z,24.43
2023-12-13T13:38:40.413Z,22.40
2023-12-13T13:41:07.468Z,21.83
2023-12-13T13:43:34.278Z,22.43
2023-12-13T13:46:00.909Z,22.60
2023-12-13T13:48:27.934Z,21.63
2023-12-13T13:50:54.320Z,25.27
2023-12-13T13:53:20.945Z,27.50
2023-12-13T13:55:47.314Z,28.53
2023-12-13T13:58:14.198Z,23.80
2023-12-13T14:00:40.780Z,24.60
2023-12-13T14:03:07.916Z,26.13
2023-12-13T14:05:44.774Z,26.10
2023-12-13T14:08:11.603Z,22.97
2023-12-13T14:10:38.083Z,26.27
2023-12-13T14:13:04.567Z,28.83
2023-12-13T14:15:30.927Z,27.87
2023-12-13T14:17:57.384Z,25.77
2023-12-13T14:20:24.413Z,23.23
2023-12-13T14:22:50.905Z,25.50
2023-12-13T14:25:18.106Z,24.13
2023-12-13T14:27:44.517Z,26.83
2023-12-13T14:30:11.320Z,24.50
2023-12-13T14:32:37.824Z,24.90
2023-12-13T14:35:07.625Z,25.53
2023-12-13T14:37:39.807Z,26.97
2023-12-13T14:40:06.668Z,26.00
2023-12-13T14:42:33.045Z,28.63
2023-12-13T14:45:00.586Z,26.27
2023-12-13T14:47:27.031Z,26.27
2023-12-13T14:49:53.453Z,26.00
2023-12-13T14:52:19.889Z,26.60
2023-12-13T14:54:47.052Z,32.60
2023-12-13T14:57:13.442Z,26.13
2023-12-13T14:59:39.795Z,27.50
2023-12-13T15:02:06.383Z,26.10
2023-12-13T15:04:32.915Z,28.97
2023-12-13T15:07:00.202Z,30.17
2023-12-13T15:09:27.214Z,30.50
2023-12-13T15:11:53.541Z,28.83
2023-12-13T15:14:20.006Z,32.53
2023-12-13T15:16:46.539Z,25.90
2023-12-13T15:19:13.026Z,25.80
2023-12-13T15:21:40.462Z,27.13
2023-12-13T15:24:06.986Z,25.47
2023-12-13T15:26:33.425Z,26.07
2023-12-13T15:29:00.888Z,27.50
2023-12-13T15:31:27.384Z,28.60
2023-12-13T15:33:54.179Z,26.73
2023-12-13T15:36:20.982Z,27.83
2023-12-13T15:38:48.280Z,27.97
2023-12-13T15:41:16.765Z,29.70
2023-12-13T15:43:46.704Z,37.37
2023-12-13T15:46:13.938Z,40.40
2023-12-13T15:48:40.396Z,30.03
2023-12-13T15:51:06.867Z,38.40
2023-12-13T15:53:33.897Z,39.93
2023-12-13T15:56:00.414Z,29.47
2023-12-13T15:58:26.813Z,29.57
2023-12-13T16:00:53.205Z,31.77
2023-12-13T16:03:19.727Z,29.17
2023-12-13T16:05:46.218Z,26.47
2023-12-13T16:08:12.828Z,29.50
2023-12-13T16:10:39.557Z,58.13
2023-12-13T16:13:06.008Z,42.63
2023-12-13T16:15:32.356Z,40.10
2023-12-13T16:17:58.810Z,27.97
2023-12-13T16:20:28.192Z,35.70
2023-12-13T16:22:56.812Z,32.83
2023-12-13T16:25:23.266Z,38.93
2023-12-13T16:27:49.790Z,36.43
2023-12-13T16:30:16.244Z,27.97
2023-12-13T16:32:42.654Z,30.07
2023-12-13T16:35:09.708Z,32.87
2023-12-13T16:37:39.630Z,39.97
2023-12-13T16:40:07.082Z,34.00
2023-12-13T16:42:33.947Z,36.37
2023-12-13T16:45:00.422Z,31.50
2023-12-13T16:47:26.939Z,32.27
2023-12-13T16:49:53.365Z,35.90
2023-12-13T16:52:19.735Z,48.03
2023-12-13T16:54:49.828Z,30.97
2023-12-13T16:57:16.437Z,35.87
2023-12-13T16:59:42.890Z,35.50
2023-12-13T17:02:09.849Z,32.47
2023-12-13T17:04:39.587Z,34.17
2023-12-13T17:07:06.946Z,30.43
2023-12-13T17:09:33.288Z,30.90
2023-12-13T17:11:59.661Z,34.93
2023-12-13T17:14:26.056Z,36.37
2023-12-13T17:16:52.459Z,33.60
2023-12-13T17:19:20.076Z,42.83
2023-12-13T17:21:46.993Z,31.53
2023-12-13T17:24:13.654Z,33.80
2023-12-13T17:26:40.097Z,40.30
2023-12-13T17:29:06.647Z,52.47
2023-12-13T17:31:33.073Z,37.87
2023-12-13T17:33:59.988Z,45.60
2023-12-13T17:36:26.496Z,39.63
2023-12-13T17:38:52.913Z,39.53
2023-12-13T17:41:19.310Z,40.30
2023-12-13T17:43:45.753Z,35.63
2023-12-13T17:46:12.247Z,33.57
2023-12-13T17:48:38.646Z,34.77
2023-12-13T17:51:05.162Z,32.13
2023-12-13T17:53:36.707Z,39.33
2023-12-13T17:56:03.684Z,44.13
2023-12-13T17:58:30.102Z,36.30
2023-12-13T18:00:56.602Z,40.43
2023-12-13T18:03:22.963Z,46.93
2023-12-13T18:05:49.451Z,35.27
2023-12-13T18:08:15.878Z,32.27
2023-12-13T18:10:42.373Z,29.70
2023-12-13T18:13:08.842Z,32.37
2023-12-13T18:15:35.202Z,30.87
2023-12-13T18:18:02.855Z,33.33
2023-12-13T18:20:29.345Z,31.53
2023-12-13T18:22:59.826Z,36.30
2023-12-13T18:25:26.705Z,31.23
2023-12-13T18:27:53.112Z,34.57
2023-12-13T18:30:19.577Z,35.10
2023-12-13T18:32:45.983Z,47.07
2023-12-13T18:35:12.455Z,54.30
2023-12-13T18:37:39.003Z,42.67
2023-12-13T18:40:05.757Z,48.40
2023-12-13T18:42:32.210Z,47.73
2023-12-13T18:44:59.180Z,49.63
2023-12-13T18:47:25.785Z,69.10
2023-12-13T18:49:52.363Z,37.73
2023-12-13T18:52:18.773Z,46.17
2023-12-13T18:54:45.190Z,35.03
2023-12-13T18:57:12.166Z,38.30
2023-12-13T18:59:38.536Z,34.17
2023-12-13T19:02:05.030Z,34.90
2023-12-13T19:04:31.409Z,39.10
2023-12-13T19:06:57.773Z,34.50
2023-12-13T19:09:25.493Z,33.97
2023-12-13T19:11:51.875Z,33.73
2023-12-13T19:14:18.239Z,34.30
2023-12-13T19:16:45.766Z,34.60
2023-12-13T19:19:12.613Z,36.37
2023-12-13T19:21:39.007Z,33.83
2023-12-13T19:24:05.532Z,34.70
2023-12-13T19:26:31.927Z,31.97
2023-12-13T19:29:04.057Z,33.70
2023-12-13T19:31:31.383Z,35.53
2023-12-13T19:33:57.932Z,30.33
2023-12-13T19:36:24.405Z,33.03
2023-12-13T19:38:50.803Z,40.03
2023-12-13T19:41:17.184Z,34.67
2023-12-13T19:43:43.789Z,36.93
2023-12-13T19:46:10.229Z,34.83
2023-12-13T19:48:36.671Z,40.13
2023-12-13T19:51:03.169Z,37.23
2023-12-13T19:53:29.784Z,43.83
2023-12-13T19:55:56.510Z,33.47
2023-12-13T19:58:22.899Z,31.90
2023-12-13T20:00:49.410Z,36.83
2023-12-13T20:03:15.865Z,32.57
2023-12-13T20:05:43.149Z,35.40
2023-12-13T20:08:09.808Z,36.43
2023-12-13T20:10:36.312Z,30.07
2023-12-13T20:13:02.764Z,30.30
2023-12-13T20:15:29.150Z,34.07
2023-12-13T20:17:55.654Z,32.67
2023-12-13T20:20:22.056Z,32.30
2023-12-13T20:22:48.577Z,36.73
2023-12-13T20:25:15.452Z,38.20
2023-12-13T20:27:41.969Z,30.93
2023-12-13T20:30:11.416Z,31.00
2023-12-13T20:32:39.479Z,30.37
2023-12-13T20:35:06.626Z,31.93
2023-12-13T20:37:33.411Z,33.37
2023-12-13T20:40:00.149Z,34.27
2023-12-13T20:42:27.676Z,29.13
2023-12-13T20:44:54.329Z,31.33
2023-12-13T20:47:20.820Z,27.63
2023-12-13T20:49:47.491Z,27.83
2023-12-13T20:52:13.851Z,29.77
2023-12-13T20:54:40.514Z,33.17
2023-12-13T20:57:07.055Z,32.83
2023-12-13T20:59:34.704Z,32.13
2023-12-13T21:02:01.186Z,33.53
2023-12-13T21:04:27.650Z,38.03
2023-12-13T21:06:54.016Z,30.07
2023-12-13T21:09:20.369Z,33.17
2023-12-13T21:11:47.878Z,34.80
2023-12-13T21:14:14.309Z,33.00
2023-12-13T21:16:41.361Z,33.40
2023-12-13T21:19:09.564Z,28.27
2023-12-13T21:21:36.117Z,35.53
2023-12-13T21:24:10.486Z,30.50
2023-12-13T21:26:43.337Z,32.77
2023-12-13T21:29:10.129Z,31.47
2023-12-13T21:31:42.132Z,33.17
2023-12-13T21:34:09.839Z,31.77
2023-12-13T21:36:36.401Z,32.63
2023-12-13T21:39:03.270Z,31.73
2023-12-13T21:41:29.645Z,29.37
2023-12-13T21:43:56.054Z,29.53
2023-12-13T21:46:23.266Z,31.47
2023-12-13T21:48:49.964Z,34.77
2023-12-13T21:51:16.843Z,34.30
2023-12-13T21:53:49.260Z,34.80
2023-12-13T21:56:16.323Z,37.73
2023-12-13T21:58:43.480Z,33.13
2023-12-13T22:01:10.451Z,35.17
2023-12-13T22:03:37.439Z,37.83
2023-12-13T22:06:04.356Z,38.13
2023-12-13T22:08:30.876Z,38.70
2023-12-13T22:10:58.148Z,30.10
2023-12-13T22:13:24.625Z,34.10
2023-12-13T22:15:52.256Z,31.00
2023-12-13T22:18:27.071Z,39.03
2023-12-13T22:20:55.868Z,31.53
2023-12-13T22:23:23.329Z,31.70
2023-12-13T22:25:53.252Z,30.63
2023-12-13T22:28:19.973Z,33.77
2023-12-13T22:30:46.905Z,27.20
2023-12-13T22:33:13.768Z,38.90
2023-12-13T22:35:40.232Z,28.00
2023-12-13T22:38:06.805Z,25.77
2023-12-13T22:40:33.269Z,21.30
2023-12-13T22:42:59.658Z,22.47
2023-12-13T22:45:26.016Z,19.57
2023-12-13T22:47:52.859Z,18.60
2023-12-13T22:50:19.435Z,19.07
2023-12-13T22:52:45.875Z,24.33
2023-12-13T22:55:15.509Z,19.47
2023-12-13T22:57:41.840Z,20.00
2023-12-13T23:00:14.243Z,19.20
2023-12-13T23:02:40.907Z,19.50
2023-12-13T23:05:07.657Z,24.27
2023-12-13T23:07:34.228Z,18.97
2023-12-13T23:10:00.597Z,18.57
2023-12-13T23:12:26.937Z,18.57
2023-12-13T23:14:53.341Z,18.80
2023-12-13T23:17:19.694Z,16.50
2023-12-13T23:19:46.097Z,17.97
2023-12-13T23:22:12.965Z,15.53
2023-12-13T23:24:39.338Z,17.90
2023-12-13T23:27:05.720Z,18.17
2023-12-13T23:29:32.403Z,16.33
2023-12-13T23:31:58.884Z,20.67
2023-12-13T23:34:25.282Z,16.93
2023-12-13T23:36:51.710Z,18.97
2023-12-13T23:39:18.074Z,19.57
2023-12-13T23:41:44.438Z,21.67
2023-12-13T23:44:11.210Z,20.83
2023-12-13T23:46:38.519Z,20.07
2023-12-13T23:49:05.050Z,22.17
2023-12-13T23:51:31.522Z,21.10
2023-12-13T23:53:58.610Z,18.50
2023-12-13T23:56:25.150Z,17.47
2023-12-13T23:58:51.571Z,16.67
